LDPL/PUY METAR and TAF weather

Enter ICAO airport designator
Station Type Date Time Source
LDPL METAR 2020/10/20 16:30 UTC NOAA

LDPL 201630Z VRB02KT CAVOK 13/11 Q1024 NOSIG


Station Type Date Time Source
LDPL Decoded METAR 2020/10/20 16:30 UTC NOAA

Pula Aerodrome, Croatia (LDPL) 45-54N 013-55E 63M
Oct 20, 2020 - 12:30 PM EDT / 2020.10.20 1630 UTC
Wind: Variable at 2 MPH (2 KT):0
Visibility: greater than 7 mile(s):0
Temperature: 55 F (13 C)
Dew Point: 51 F (11 C)
Relative Humidity: 87%
Pressure (altimeter): 30.24 in. Hg (1024 hPa)
ob: LDPL 201630Z VRB02KT CAVOK 13/11 Q1024 NOSIG
cycle: 16

Station Type Date Time Source
LDPL TAF 2020/10/20 12:30 UTC NOAA

TAF LDPL 201125Z 2012/2112 VRB02KT 9999 FEW020 TX19/2111Z TN08/2104Z PROB40 2012/2016 27008KT PROB30
TEMPO 2100/2106 4000 MIFG BR

Example: see airport list